Time;durP1;ratioP1;P1;durP2;ratioP2;P2;SDS_P1;SDS_P2;PMS_P1;PMS_P2;Temp;Humidity;BMP_temperature;BMP_pressure;BME280_temperature;BME280_humidity;BME280_pressure;Samples;Min_cycle;Max_cycle;Signal;HPM_P1;HPM_P2
2023/04/01 00:00:10;;;;;;;;;;;;;;;17.31;58.19;99277.91;2113550;28;19930;-58
2023/04/01 00:01:14;;;;;;;;;;;;;;;17.31;58.13;99275.19;2112324;28;20283;-58
2023/04/01 00:02:18;;;;;;;;;;;;;;;17.31;58.04;99275.19;2110017;27;19932;-58
2023/04/01 00:03:21;;;;;;;;;;;;;;;17.29;58.22;99277.56;2115187;27;19928;-59
2023/04/01 00:04:24;;;;;;;;;;;;;;;17.30;58.17;99274.41;2112335;27;20298;-57
2023/04/01 00:05:26;;;;;;;;;;;;;;;17.30;58.04;99268.94;2106945;28;19931;-58
2023/04/01 00:06:29;;;;;;;;;;;;;;;17.30;58.23;99273.66;2114053;28;20322;-58
2023/04/01 00:07:31;;;;;;;;;;;;;;;17.31;58.14;99277.91;2119610;27;19996;-58
2023/04/01 00:08:34;;;;;;;;;;;;;;;17.30;57.99;99277.13;2112660;27;20187;-57
2023/04/01 00:09:37;;;;;;;;;;;;;;;17.30;58.21;99274.41;2114582;27;19932;-59
2023/04/01 00:10:39;;;;;;;;;;;;;;;17.30;58.41;99277.13;2115610;27;19931;-59
2023/04/01 00:11:41;;;;;;;;;;;;;;;17.29;58.17;99275.59;2113800;28;19931;-59
2023/04/01 00:12:43;;;;;;;;;;;;;;;17.30;58.20;99279.09;2113151;28;19963;-59
2023/04/01 00:13:46;;;;;;;;;;;;;;;17.30;57.90;99279.84;2117321;27;19927;-59
2023/04/01 00:14:47;;;;;;;;;;;;;;;17.30;58.31;99277.13;2116598;27;19960;-56
2023/04/01 00:15:50;;;;;;;;;;;;;;;17.30;58.19;99281.84;2120748;27;19950;-59
2023/04/01 00:16:53;;;;;;;;;;;;;;;17.30;57.95;99273.66;2114881;27;20377;-60
2023/04/01 00:17:56;;;;;;;;;;;;;;;17.29;57.99;99278.31;2117208;27;20305;-60
2023/04/01 00:18:59;;;;;;;;;;;;;;;17.30;58.02;99279.84;2114983;27;19927;-58
2023/04/01 00:20:02;;;;;;;;;;;;;;;17.30;58.24;99279.09;2113118;28;19932;-57
2023/04/01 00:21:05;;;;;;;;;;;;;;;17.29;58.18;99278.31;2113431;28;19923;-57
2023/04/01 00:22:09;;;;;;;;;;;;;;;17.30;58.44;99279.09;2114977;27;19928;-57
2023/04/01 00:23:11;;;;;;;;;;;;;;;17.29;58.11;99289.25;2113582;27;20385;-58
2023/04/01 00:24:14;;;;;;;;;;;;;;;17.29;58.21;99275.59;2108171;28;19935;-57
2023/04/01 00:25:16;;;;;;;;;;;;;;;17.30;58.22;99284.56;2102351;28;20398;-57
2023/04/01 00:26:18;;;;;;;;;;;;;;;17.30;58.08;99273.66;2107477;27;20425;-58
2023/04/01 00:27:20;;;;;;;;;;;;;;;17.30;58.37;99279.09;2106893;28;19963;-57
2023/04/01 00:28:23;;;;;;;;;;;;;;;17.29;58.08;99281.06;2116913;27;19979;-57
2023/04/01 00:29:28;;;;;;;;;;;;;;;17.31;57.97;99280.63;2114998;27;20474;-55
2023/04/01 00:30:31;;;;;;;;;;;;;;;17.30;58.32;99279.09;2106887;28;19931;-56
2023/04/01 00:31:33;;;;;;;;;;;;;;;17.29;58.16;99283.78;2112151;28;19927;-57
2023/04/01 00:32:36;;;;;;;;;;;;;;;17.29;58.02;99278.31;2111063;28;20444;-55
2023/04/01 00:33:39;;;;;;;;;;;;;;;17.30;58.11;99279.09;2105751;28;19975;-57
2023/04/01 00:34:42;;;;;;;;;;;;;;;17.30;57.97;99282.59;2103219;28;19928;-57
2023/04/01 00:35:44;;;;;;;;;;;;;;;17.30;58.04;99276.38;2113176;28;19984;-57
2023/04/01 00:36:47;;;;;;;;;;;;;;;17.30;58.32;99276.38;2104042;28;19924;-57
2023/04/01 00:37:49;;;;;;;;;;;;;;;17.29;58.01;99277.56;2099465;28;19929;-57
2023/04/01 00:38:52;;;;;;;;;;;;;;;17.29;58.26;99269.38;2113228;28;20434;-57
2023/04/01 00:39:54;;;;;;;;;;;;;;;17.28;58.57;99274.03;2113023;28;20003;-57
2023/04/01 00:40:58;;;;;;;;;;;;;;;17.29;58.10;99277.56;2103992;28;20395;-57
2023/04/01 00:42:00;;;;;;;;;;;;;;;17.29;58.20;99277.56;2104189;28;19961;-58
2023/04/01 00:43:03;;;;;;;;;;;;;;;17.30;58.08;99279.09;2116386;27;19927;-54
2023/04/01 00:44:17;;;;;;;;;;;;;;;17.29;57.86;99272.88;2100777;28;19975;-54
2023/04/01 00:45:30;;;;;;;;;;;;;;;17.29;58.21;99278.31;2104903;28;19936;-54
2023/04/01 00:46:35;;;;;;;;;;;;;;;17.29;58.32;99272.09;2105124;28;19928;-53
2023/04/01 00:47:37;;;;;;;;;;;;;;;17.29;58.37;99274.81;2103040;28;19991;-55
2023/04/01 00:48:42;;;;;;;;;;;;;;;17.28;58.17;99282.22;2099219;28;20357;-54
2023/04/01 00:49:46;;;;;;;;;;;;;;;17.29;58.07;99275.59;2112701;28;19935;-54
2023/04/01 00:50:51;;;;;;;;;;;;;;;17.29;58.17;99277.56;2113851;27;19927;-54
2023/04/01 00:51:55;;;;;;;;;;;;;;;17.29;58.13;99275.59;2110582;27;20070;-54
2023/04/01 00:52:58;;;;;;;;;;;;;;;17.30;58.07;99281.84;2109133;28;20459;-54
2023/04/01 00:54:01;;;;;;;;;;;;;;;17.30;58.32;99279.09;2104309;28;19968;-54
2023/04/01 00:55:05;;;;;;;;;;;;;;;17.29;58.03;99281.06;2112678;28;20345;-53
2023/04/01 00:56:09;;;;;;;;;;;;;;;17.29;58.37;99275.59;2110981;28;19972;-53
2023/04/01 00:57:14;;;;;;;;;;;;;;;17.28;58.04;99274.03;2114704;27;19928;-54
2023/04/01 00:58:17;;;;;;;;;;;;;;;17.29;58.12;99281.06;2103552;28;19947;-54
2023/04/01 00:59:22;;;;;;;;;;;;;;;17.29;57.99;99278.31;2104223;28;19932;-55
2023/04/01 01:00:26;;;;;;;;;;;;;;;17.29;58.13;99275.59;2101712;27;19950;-54
2023/04/01 01:01:30;;;;;;;;;;;;;;;17.28;58.45;99276.78;2109820;27;19944;-54
2023/04/01 01:02:33;;;;;;;;;;;;;;;17.28;58.41;99282.22;2112497;28;20280;-54
2023/04/01 01:03:35;;;;;;;;;;;;;;;17.29;58.48;99280.28;2113208;28;20000;-55
2023/04/01 01:04:38;;;;;;;;;;;;;;;17.29;58.11;99277.56;2111951;28;20010;-55
2023/04/01 01:05:53;;;;;;;;;;;;;;;17.29;58.21;99277.56;2095069;28;19928;-55
2023/04/01 01:06:59;;;;;;;;;;;;;;;17.29;58.16;99283.78;2104646;28;19935;-55
2023/04/01 01:08:06;;;;;;;;;;;;;;;17.29;57.97;99280.28;2092942;28;20517;-54
2023/04/01 01:09:14;;;;;;;;;;;;;;;17.29;58.19;99280.28;2098970;28;20473;-54
2023/04/01 01:10:17;;;;;;;;;;;;;;;17.28;58.03;99282.22;2107486;28;21411;-54
2023/04/01 01:11:23;;;;;;;;;;;;;;;17.28;58.09;99287.69;2113222;28;19978;-55
2023/04/01 01:12:31;;;;;;;;;;;;;;;17.29;58.23;99283.00;2112630;27;20394;-54
2023/04/01 01:13:36;;;;;;;;;;;;;;;17.28;58.44;99276.78;2102750;28;20305;-54
2023/04/01 01:14:46;;;;;;;;;;;;;;;17.29;58.34;99288.47;2100172;28;20037;-55
2023/04/01 01:15:52;;;;;;;;;;;;;;;17.28;58.29;99286.94;2109825;28;20364;-52
2023/04/01 01:16:59;;;;;;;;;;;;;;;17.28;58.33;99282.22;2110296;28;19927;-54
2023/04/01 01:18:05;;;;;;;;;;;;;;;17.29;58.23;99283.00;2105590;28;19938;-55
2023/04/01 01:19:12;;;;;;;;;;;;;;;17.28;58.32;99286.94;2113492;28;20681;-55
2023/04/01 01:20:32;;;;;;;;;;;;;;;17.28;58.35;99284.22;2118269;27;19923;-54
2023/04/01 01:21:45;;;;;;;;;;;;;;;17.28;58.35;99287.69;2110484;27;19932;-55
2023/04/01 01:23:04;;;;;;;;;;;;;;;17.28;58.24;99286.94;2112480;28;19935;-52
2023/04/01 01:24:21;;;;;;;;;;;;;;;17.28;58.08;99286.94;2105382;28;19928;-54
2023/04/01 01:25:31;;;;;;;;;;;;;;;17.28;58.31;99287.69;2107865;28;20336;-56
2023/04/01 01:26:47;;;;;;;;;;;;;;;17.28;57.97;99284.97;2116701;27;19928;-56
2023/04/01 01:27:54;;;;;;;;;;;;;;;17.29;58.10;99293.91;2111599;27;19924;-57
2023/04/01 01:29:05;;;;;;;;;;;;;;;17.27;58.30;99290.84;2115747;27;20493;-57
2023/04/01 01:30:16;;;;;;;;;;;;;;;17.29;58.39;99293.91;2116440;28;19970;-55
2023/04/01 01:31:21;;;;;;;;;;;;;;;17.28;58.18;99298.59;2107495;28;20299;-56
2023/04/01 01:32:37;;;;;;;;;;;;;;;17.28;58.38;99298.59;2112673;28;20311;-57
2023/04/01 01:33:55;;;;;;;;;;;;;;;17.28;58.15;99297.84;2108257;28;19935;-60
2023/04/01 01:35:06;;;;;;;;;;;;;;;17.28;58.20;99295.13;2110352;28;19978;-56
2023/04/01 01:36:12;;;;;;;;;;;;;;;17.28;58.24;99295.88;2115776;28;19927;-56
2023/04/01 01:37:16;;;;;;;;;;;;;;;17.28;58.12;99295.88;2112872;28;20014;-57
2023/04/01 01:38:20;;;;;;;;;;;;;;;17.28;58.33;99297.84;2113755;28;19927;-57
2023/04/01 01:39:35;;;;;;;;;;;;;;;17.28;58.14;99297.84;2102949;28;20001;-56
2023/04/01 01:40:39;;;;;;;;;;;;;;;17.27;58.05;99302.53;2098655;28;19928;-53
2023/04/01 01:41:44;;;;;;;;;;;;;;;17.28;58.06;99306.03;2112339;28;20055;-57
2023/04/01 01:42:48;;;;;;;;;;;;;;;17.27;57.95;99296.28;2108377;28;19927;-58
2023/04/01 01:43:51;;;;;;;;;;;;;;;17.28;58.23;99304.06;2112367;28;19931;-56
2023/04/01 01:44:55;;;;;;;;;;;;;;;17.27;58.17;99302.53;2113567;28;20375;-57
2023/04/01 01:46:01;;;;;;;;;;;;;;;17.27;58.12;99301.75;2111021;28;20351;-55
2023/04/01 01:47:03;;;;;;;;;;;;;;;17.28;58.35;99308.75;2105722;28;19955;-57
2023/04/01 01:48:07;;;;;;;;;;;;;;;17.27;58.11;99305.25;2113291;28;19924;-57
2023/04/01 01:49:10;;;;;;;;;;;;;;;17.27;58.32;99304.47;2110173;28;19927;-57
2023/04/01 01:50:14;;;;;;;;;;;;;;;17.27;58.40;99309.94;2103878;28;20513;-54
2023/04/01 01:51:16;;;;;;;;;;;;;;;17.28;58.28;99308.75;2093639;28;19928;-58
2023/04/01 01:52:19;;;;;;;;;;;;;;;17.28;58.51;99308.75;2101443;28;19978;-57
2023/04/01 01:53:21;;;;;;;;;;;;;;;17.28;58.30;99308.75;2095941;28;19928;-57
2023/04/01 01:54:23;;;;;;;;;;;;;;;17.27;58.38;99307.19;2101859;28;20338;-57
2023/04/01 01:55:27;;;;;;;;;;;;;;;17.27;58.03;99309.94;2102432;28;20400;-56
2023/04/01 01:56:31;;;;;;;;;;;;;;;17.27;58.45;99304.47;2101155;28;20035;-58
2023/04/01 01:57:34;;;;;;;;;;;;;;;17.27;58.16;99309.94;2092110;28;20414;-57
2023/04/01 01:58:42;;;;;;;;;;;;;;;17.27;58.35;99305.25;2088035;28;19928;-56
2023/04/01 01:59:47;;;;;;;;;;;;;;;17.27;58.24;99307.97;2102412;28;19974;-57
2023/04/01 02:00:59;;;;;;;;;;;;;;;17.26;58.41;99306.47;2110140;28;20026;-58
2023/04/01 02:02:07;;;;;;;;;;;;;;;17.27;58.14;99315.38;2097045;28;20355;-57
2023/04/01 02:03:11;;;;;;;;;;;;;;;17.27;58.47;99309.94;2092738;28;19928;-56
2023/04/01 02:04:14;;;;;;;;;;;;;;;17.28;58.23;99314.22;2110294;28;20016;-56
2023/04/01 02:05:21;;;;;;;;;;;;;;;17.27;58.11;99318.13;2119649;27;20018;-56
2023/04/01 02:06:25;;;;;;;;;;;;;;;17.27;58.33;99318.13;2096785;28;19929;-56
2023/04/01 02:07:31;;;;;;;;;;;;;;;17.27;58.24;99315.38;2096902;28;19928;-57
2023/04/01 02:08:35;;;;;;;;;;;;;;;17.27;58.10;99312.66;2107508;28;19936;-55
2023/04/01 02:09:38;;;;;;;;;;;;;;;17.27;58.42;99318.13;2102953;28;19978;-56
2023/04/01 02:10:42;;;;;;;;;;;;;;;17.27;58.13;99318.13;2101702;28;19924;-57
2023/04/01 02:11:48;;;;;;;;;;;;;;;17.27;58.13;99323.56;2101141;28;20402;-57
2023/04/01 02:12:51;;;;;;;;;;;;;;;17.27;58.35;99318.13;2101235;28;19925;-57
2023/04/01 02:13:56;;;;;;;;;;;;;;;17.27;58.12;99323.56;2109371;28;19971;-57
2023/04/01 02:15:02;;;;;;;;;;;;;;;17.27;58.14;99326.28;2114104;28;19928;-55
2023/04/01 02:16:12;;;;;;;;;;;;;;;17.26;58.40;99328.28;2097035;28;19928;-55
2023/04/01 02:17:15;;;;;;;;;;;;;;;17.27;58.41;99331.75;2105195;28;19931;-57
2023/04/01 02:18:19;;;;;;;;;;;;;;;17.26;57.94;99331.00;2107301;27;20348;-57
2023/04/01 02:19:22;;;;;;;;;;;;;;;17.26;58.14;99333.72;2110972;27;19970;-58
2023/04/01 02:20:28;;;;;;;;;;;;;;;17.26;58.25;99330.22;2101281;28;19963;-58
2023/04/01 02:21:32;;;;;;;;;;;;;;;17.27;58.20;99327.06;2090985;28;19928;-58
2023/04/01 02:22:36;;;;;;;;;;;;;;;17.27;58.36;99337.22;2114323;27;20386;-57
2023/04/01 02:23:38;;;;;;;;;;;;;;;17.26;58.31;99336.47;2109050;28;19927;-57
2023/04/01 02:24:42;;;;;;;;;;;;;;;17.20;58.20;99329.97;2097525;28;20441;-58
2023/04/01 02:25:46;;;;;;;;;;;;;;;17.26;58.01;99339.19;2098290;28;19931;-57
2023/04/01 02:26:51;;;;;;;;;;;;;;;17.27;58.31;99339.94;2105875;28;20000;-57
2023/04/01 02:27:54;;;;;;;;;;;;;;;17.26;58.17;99338.41;2098552;28;20016;-55
2023/04/01 02:28:58;;;;;;;;;;;;;;;17.27;58.01;99339.94;2097217;28;20311;-57
2023/04/01 02:30:00;;;;;;;;;;;;;;;17.26;58.06;99338.41;2101323;28;19925;-56
2023/04/01 02:31:03;;;;;;;;;;;;;;;17.26;58.34;99339.19;2109426;28;19943;-55
2023/04/01 02:32:05;;;;;;;;;;;;;;;17.26;58.07;99333.72;2113281;28;20015;-57
2023/04/01 02:33:08;;;;;;;;;;;;;;;17.27;58.21;99334.47;2108316;28;20766;-57
2023/04/01 02:34:11;;;;;;;;;;;;;;;17.26;58.27;99339.19;2104948;28;19982;-58
2023/04/01 02:35:15;;;;;;;;;;;;;;;17.26;58.31;99346.59;2116571;27;19927;-54
2023/04/01 02:36:18;;;;;;;;;;;;;;;17.26;58.27;99336.47;2117589;27;20319;-56
2023/04/01 02:37:21;;;;;;;;;;;;;;;17.26;58.40;99339.19;2103384;28;19928;-56
2023/04/01 02:38:23;;;;;;;;;;;;;;;17.27;58.30;99345.41;2099238;28;19993;-57
2023/04/01 02:39:26;;;;;;;;;;;;;;;17.25;58.00;99343.09;2105024;28;19998;-57
2023/04/01 02:40:27;;;;;;;;;;;;;;;17.26;58.37;99338.41;2107134;28;19939;-57
2023/04/01 02:41:30;;;;;;;;;;;;;;;17.26;58.05;99341.91;2110598;28;20010;-57
2023/04/01 02:42:32;;;;;;;;;;;;;;;17.27;58.45;99356.31;2105023;28;19928;-57
2023/04/01 02:43:34;;;;;;;;;;;;;;;17.26;58.38;99343.88;2111948;27;19924;-56
2023/04/01 02:44:36;;;;;;;;;;;;;;;17.27;58.15;99350.84;2114622;28;19976;-56
2023/04/01 02:45:39;;;;;;;;;;;;;;;17.26;58.36;99349.31;2114032;27;19927;-57
2023/04/01 02:46:41;;;;;;;;;;;;;;;17.25;58.37;99347.78;2103938;28;19935;-56
2023/04/01 02:47:44;;;;;;;;;;;;;;;17.26;58.21;99350.09;2096941;28;19936;-56
2023/04/01 02:48:45;;;;;;;;;;;;;;;17.25;58.42;99348.53;2097809;28;19932;-57
2023/04/01 02:49:48;;;;;;;;;;;;;;;17.26;58.20;99350.09;2094616;28;19969;-57
2023/04/01 02:50:50;;;;;;;;;;;;;;;17.26;58.23;99349.31;2104870;28;19928;-57
2023/04/01 02:51:54;;;;;;;;;;;;;;;17.25;58.22;99358.72;2111769;27;20436;-57
2023/04/01 02:52:56;;;;;;;;;;;;;;;17.26;58.14;99360.22;2108186;27;19960;-58
2023/04/01 02:53:58;;;;;;;;;;;;;;;17.25;58.38;99358.72;2104563;28;19928;-58
2023/04/01 02:55:00;;;;;;;;;;;;;;;17.26;58.10;99360.22;2096470;28;19929;-56
2023/04/01 02:56:03;;;;;;;;;;;;;;;17.25;58.25;99351.28;2103117;28;19928;-59
2023/04/01 02:57:05;;;;;;;;;;;;;;;17.26;58.32;99354.78;2104893;28;20360;-58
2023/04/01 02:58:07;;;;;;;;;;;;;;;17.26;58.17;99360.22;2105822;28;20332;-52
2023/04/01 02:59:09;;;;;;;;;;;;;;;17.26;58.35;99358.28;2099789;28;19928;-59
2023/04/01 03:00:12;;;;;;;;;;;;;;;17.25;58.44;99358.72;2105677;28;19935;-58
2023/04/01 03:01:14;;;;;;;;;;;;;;;17.25;58.35;99366.88;2099744;28;19932;-59
2023/04/01 03:02:17;;;;;;;;;;;;;;;17.25;58.26;99361.44;2097084;28;20388;-58
2023/04/01 03:03:19;;;;;;;;;;;;;;;17.25;58.00;99366.88;2099459;28;20007;-59
2023/04/01 03:04:22;;;;;;;;;;;;;;;17.26;58.04;99365.69;2102230;28;20274;-57
2023/04/01 03:05:23;;;;;;;;;;;;;;;17.25;58.35;99366.88;2097296;28;19939;-59
2023/04/01 03:06:26;;;;;;;;;;;;;;;17.26;58.05;99368.41;2094981;28;19986;-58
2023/04/01 03:07:29;;;;;;;;;;;;;;;17.26;58.63;99365.69;2097213;28;19962;-58
2023/04/01 03:08:32;;;;;;;;;;;;;;;17.25;58.23;99366.88;2114183;28;20419;-56
2023/04/01 03:09:34;;;;;;;;;;;;;;;17.25;58.07;99375.81;2114169;27;19972;-59
2023/04/01 03:10:36;;;;;;;;;;;;;;;17.26;58.22;99365.69;2111446;28;19965;-58
2023/04/01 03:11:40;;;;;;;;;;;;;;;17.26;58.33;99371.16;2106977;28;19928;-58
2023/04/01 03:12:43;;;;;;;;;;;;;;;17.25;58.42;99369.63;2096827;28;19962;-58
2023/04/01 03:13:45;;;;;;;;;;;;;;;17.25;58.29;99366.88;2089724;28;19924;-58
2023/04/01 03:14:47;;;;;;;;;;;;;;;17.24;58.34;99368.84;2089269;28;20012;-57
2023/04/01 03:15:49;;;;;;;;;;;;;;;17.24;58.02;99368.06;2099503;28;19928;-57
2023/04/01 03:16:52;;;;;;;;;;;;;;;17.25;58.00;99377.81;2110494;28;19928;-57
2023/04/01 03:17:54;;;;;;;;;;;;;;;17.25;58.17;99372.34;2100577;28;19924;-58
2023/04/01 03:18:58;;;;;;;;;;;;;;;17.25;58.36;99380.53;2091658;28;19939;-58
2023/04/01 03:20:00;;;;;;;;;;;;;;;17.24;58.42;99373.50;2102678;28;19936;-55
2023/04/01 03:21:15;;;;;;;;;;;;;;;17.24;58.32;99377.03;2106733;28;20555;-58
2023/04/01 03:22:20;;;;;;;;;;;;;;;17.25;58.12;99375.06;2106836;28;19928;-58
2023/04/01 03:23:25;;;;;;;;;;;;;;;17.25;58.23;99383.25;2106040;28;19932;-56
2023/04/01 03:24:26;;;;;;;;;;;;;;;17.25;58.27;99383.25;2115260;27;20469;-58
2023/04/01 03:25:30;;;;;;;;;;;;;;;17.24;58.05;99379.75;2113092;28;19932;-58
2023/04/01 03:26:32;;;;;;;;;;;;;;;17.25;58.37;99385.97;2101200;28;19973;-56
2023/04/01 03:27:36;;;;;;;;;;;;;;;17.25;58.27;99380.53;2092105;28;19928;-58
2023/04/01 03:28:37;;;;;;;;;;;;;;;17.24;58.12;99385.19;2097257;28;20308;-58
2023/04/01 03:29:40;;;;;;;;;;;;;;;17.25;58.45;99394.16;2120530;27;20006;-58
2023/04/01 03:30:43;;;;;;;;;;;;;;;17.24;57.96;99379.75;2117337;27;20026;-58
2023/04/01 03:31:46;;;;;;;;;;;;;;;17.24;58.38;99387.16;2117697;27;19924;-58
2023/04/01 03:32:48;;;;;;;;;;;;;;;17.24;58.39;99395.34;2108917;28;20018;-58
2023/04/01 03:33:50;;;;;;;;;;;;;;;17.24;58.48;99390.66;2105091;28;19932;-57
2023/04/01 03:34:52;;;;;;;;;;;;;;;17.24;58.07;99395.34;2113755;28;19984;-58
2023/04/01 03:35:54;;;;;;;;;;;;;;;17.24;58.13;99390.66;2115751;27;19924;-59
2023/04/01 03:36:57;;;;;;;;;;;;;;;17.24;58.16;99389.88;2104075;28;20384;-58
2023/04/01 03:37:59;;;;;;;;;;;;;;;17.24;58.19;99400.78;2111736;28;19924;-58
2023/04/01 03:39:03;;;;;;;;;;;;;;;17.24;58.07;99392.59;2115071;27;20010;-57
2023/04/01 03:40:14;;;;;;;;;;;;;;;17.23;58.55;99397.31;2112695;28;19931;-57
2023/04/01 03:41:17;;;;;;;;;;;;;;;17.24;58.23;99403.53;2102427;28;19932;-58
2023/04/01 03:42:19;;;;;;;;;;;;;;;17.24;58.26;99406.25;2093465;28;19979;-57
2023/04/01 03:43:22;;;;;;;;;;;;;;;17.25;58.36;99407.81;2093933;28;19928;-57
2023/04/01 03:44:24;;;;;;;;;;;;;;;17.23;58.15;99397.31;2112267;28;20452;-59
2023/04/01 03:45:28;;;;;;;;;;;;;;;17.24;58.27;99404.31;2102295;28;19928;-59
2023/04/01 03:46:30;;;;;;;;;;;;;;;17.24;58.15;99406.25;2104066;28;19924;-58
2023/04/01 03:47:32;;;;;;;;;;;;;;;17.24;58.37;99406.25;2112907;27;20433;-58
2023/04/01 03:48:35;;;;;;;;;;;;;;;17.23;58.41;99405.50;2109518;27;20022;-58
2023/04/01 03:49:37;;;;;;;;;;;;;;;17.23;58.37;99410.94;2105170;28;20395;-57
2023/04/01 03:50:40;;;;;;;;;;;;;;;17.23;58.26;99410.94;2117195;27;20009;-59
2023/04/01 03:51:42;;;;;;;;;;;;;;;17.25;58.30;99410.53;2117049;27;19928;-58
2023/04/01 03:52:46;;;;;;;;;;;;;;;17.24;58.04;99417.16;2110076;28;20458;-58
2023/04/01 03:53:48;;;;;;;;;;;;;;;17.24;58.07;99414.44;2103603;28;19928;-58
2023/04/01 03:54:53;;;;;;;;;;;;;;;17.24;58.42;99417.16;2102181;28;20411;-58
2023/04/01 03:55:55;;;;;;;;;;;;;;;17.23;58.25;99419.13;2106148;28;19975;-59
2023/04/01 03:56:58;;;;;;;;;;;;;;;17.23;58.11;99410.19;2109660;28;20510;-56
2023/04/01 03:58:01;;;;;;;;;;;;;;;17.23;58.22;99416.41;2096985;28;20566;-58
2023/04/01 03:59:05;;;;;;;;;;;;;;;17.22;58.18;99414.09;2088374;28;19975;-56
2023/04/01 04:00:08;;;;;;;;;;;;;;;17.23;58.16;99416.41;2104776;28;20430;-56
2023/04/01 04:01:16;;;;;;;;;;;;;;;17.24;58.15;99425.34;2113399;28;20019;-57
2023/04/01 04:02:18;;;;;;;;;;;;;;;17.23;58.34;99421.09;2095781;28;19935;-58
2023/04/01 04:03:20;;;;;;;;;;;;;;;17.23;58.10;99421.09;2087919;28;19936;-63
2023/04/01 04:04:22;;;;;;;;;;;;;;;17.23;58.30;99421.09;2104220;28;19928;-56
2023/04/01 04:05:25;;;;;;;;;;;;;;;17.24;58.40;99425.34;2099114;28;19935;-58
2023/04/01 04:06:27;;;;;;;;;;;;;;;17.23;58.29;99419.13;2105285;28;20360;-56
2023/04/01 04:07:30;;;;;;;;;;;;;;;17.23;58.33;99424.59;2117538;27;20348;-57
2023/04/01 04:08:38;;;;;;;;;;;;;;;17.23;58.11;99427.31;2101964;28;19939;-57
2023/04/01 04:09:40;;;;;;;;;;;;;;;17.22;58.16;99431.22;2110824;28;20418;-58
2023/04/01 04:10:43;;;;;;;;;;;;;;;17.24;58.38;99425.34;2113933;28;19935;-58
2023/04/01 04:11:46;;;;;;;;;;;;;;;17.23;58.31;99429.25;2097810;28;19928;-62
2023/04/01 04:12:48;;;;;;;;;;;;;;;17.22;58.17;99425.75;2088676;28;19929;-57
2023/04/01 04:13:52;;;;;;;;;;;;;;;17.23;58.08;99430.03;2096289;28;19928;-57
2023/04/01 04:14:54;;;;;;;;;;;;;;;17.23;58.20;99432.00;2102308;28;19976;-55
2023/04/01 04:15:57;;;;;;;;;;;;;;;17.23;58.01;99429.25;2095808;28;20023;-58
2023/04/01 04:16:58;;;;;;;;;;;;;;;17.23;58.09;99432.00;2089398;28;20392;-57
2023/04/01 04:18:01;;;;;;;;;;;;;;;17.23;58.41;99434.72;2094847;28;19935;-57
2023/04/01 04:19:03;;;;;;;;;;;;;;;17.23;58.22;99432.00;2103095;28;19967;-58
2023/04/01 04:20:07;;;;;;;;;;;;;;;17.23;58.24;99438.22;2104684;28;19928;-58
2023/04/01 04:21:12;;;;;;;;;;;;;;;17.23;58.28;99429.25;2098632;28;19957;-58
2023/04/01 04:22:14;;;;;;;;;;;;;;;17.22;58.02;99431.22;2093093;28;20284;-58
2023/04/01 04:23:16;;;;;;;;;;;;;;;17.22;58.36;99441.38;2108757;28;19982;-58
2023/04/01 04:24:19;;;;;;;;;;;;;;;17.23;58.15;99440.19;2105453;28;20380;-57
2023/04/01 04:25:33;;;;;;;;;;;;;;;17.23;58.09;99442.91;2094611;28;19929;-56
2023/04/01 04:26:37;;;;;;;;;;;;;;;17.23;58.41;99448.34;2088278;28;19929;-59
2023/04/01 04:27:39;;;;;;;;;;;;;;;17.23;58.26;99442.91;2107073;27;19924;-58
2023/04/01 04:28:44;;;;;;;;;;;;;;;17.22;58.04;99446.84;2107457;28;19975;-57
2023/04/01 04:29:46;;;;;;;;;;;;;;;17.23;58.15;99445.63;2109782;28;20024;-58
2023/04/01 04:30:48;;;;;;;;;;;;;;;17.23;58.29;99451.09;2095834;28;20579;-57
2023/04/01 04:31:50;;;;;;;;;;;;;;;17.23;58.30;99448.34;2096353;28;19936;-58
2023/04/01 04:32:53;;;;;;;;;;;;;;;17.23;58.39;99451.09;2105711;28;20379;-58
2023/04/01 04:33:55;;;;;;;;;;;;;;;17.22;58.10;99452.28;2098549;28;19928;-57
2023/04/01 04:34:58;;;;;;;;;;;;;;;17.22;58.16;99455.00;2087363;28;20503;-56
2023/04/01 04:36:00;;;;;;;;;;;;;;;17.22;58.11;99455.00;2094773;28;19928;-57
2023/04/01 04:37:03;;;;;;;;;;;;;;;17.23;58.16;99459.28;2099107;28;20284;-57
2023/04/01 04:38:09;;;;;;;;;;;;;;;17.23;58.29;99453.81;2101194;28;19935;-56
2023/04/01 04:39:11;;;;;;;;;;;;;;;17.21;58.25;99451.50;2093974;28;20413;-59
2023/04/01 04:40:15;;;;;;;;;;;;;;;17.22;58.28;99460.47;2097217;28;20512;-58
2023/04/01 04:41:18;;;;;;;;;;;;;;;17.21;58.36;99456.97;2104617;28;20209;-57
2023/04/01 04:42:24;;;;;;;;;;;;;;;17.22;58.00;99468.66;2103976;28;19951;-59
2023/04/01 04:43:31;;;;;;;;;;;;;;;17.22;57.94;99471.38;2094453;28;19929;-58
2023/04/01 04:44:34;;;;;;;;;;;;;;;17.22;58.09;99468.66;2095933;28;19925;-58
2023/04/01 04:45:36;;;;;;;;;;;;;;;17.21;58.19;99467.88;2095470;28;19928;-57
2023/04/01 04:46:39;;;;;;;;;;;;;;;17.22;58.20;99474.84;2097382;28;19954;-57
2023/04/01 04:47:50;;;;;;;;;;;;;;;17.22;58.29;99476.84;2096228;28;19933;-58
2023/04/01 04:48:52;;;;;;;;;;;;;;;17.20;58.29;99477.25;2094276;28;19928;-59
2023/04/01 04:49:55;;;;;;;;;;;;;;;17.21;58.23;99478.78;2094819;28;20011;-58
2023/04/01 04:50:56;;;;;;;;;;;;;;;17.22;58.02;99479.56;2093549;28;20332;-57
2023/04/01 04:51:59;;;;;;;;;;;;;;;17.22;58.51;99476.84;2101363;28;19932;-58
2023/04/01 04:53:02;;;;;;;;;;;;;;;17.22;58.27;99482.28;2106594;28;19975;-58
2023/04/01 04:54:07;;;;;;;;;;;;;;;17.22;58.23;99485.03;2086649;28;19928;-59
2023/04/01 04:55:36;;;;;;;;;;;;;;;17.21;58.46;99486.97;2101439;28;19953;-58
2023/04/01 04:56:53;;;;;;;;;;;;;;;17.21;58.37;99481.50;2103877;28;19928;-58
2023/04/01 04:57:57;;;;;;;;;;;;;;;17.22;58.13;99490.47;2097096;28;20232;-57
2023/04/01 04:59:00;;;;;;;;;;;;;;;17.21;58.02;99484.25;2095339;28;20377;-58
2023/04/01 05:00:14;;;;;;;;;;;;;;;17.21;58.27;99486.97;2096291;28;20064;-58
2023/04/01 05:01:29;;;;;;;;;;;;;;;17.21;58.43;99489.69;2096569;28;20434;-56
2023/04/01 05:02:30;;;;;;;;;;;;;;;17.21;58.17;99491.66;2103716;28;19935;-57
2023/04/01 05:03:33;;;;;;;;;;;;;;;17.22;58.57;99490.47;2113335;28;19935;-58
2023/04/01 05:04:36;;;;;;;;;;;;;;;17.20;58.24;99490.91;2105263;28;20760;-58
2023/04/01 05:05:40;;;;;;;;;;;;;;;17.21;58.06;99488.91;2099067;28;19928;-58
2023/04/01 05:06:43;;;;;;;;;;;;;;;17.21;58.06;99499.81;2092383;28;19928;-57
2023/04/01 05:07:45;;;;;;;;;;;;;;;17.20;58.13;99503.75;2107395;28;19923;-55
2023/04/01 05:08:48;;;;;;;;;;;;;;;17.21;58.09;99500.59;2112543;28;19934;-58
2023/04/01 05:09:50;;;;;;;;;;;;;;;17.20;58.17;99496.34;2105982;28;19951;-57
2023/04/01 05:10:53;;;;;;;;;;;;;;;17.21;58.14;99497.09;2096984;28;20015;-57
2023/04/01 05:11:55;;;;;;;;;;;;;;;17.21;57.98;99510.75;2103933;28;20402;-57
2023/04/01 05:13:00;;;;;;;;;;;;;;;17.20;58.20;99501.81;2108958;28;19927;-58
2023/04/01 05:14:02;;;;;;;;;;;;;;;17.21;58.31;99499.81;2096537;28;19928;-55
2023/04/01 05:15:07;;;;;;;;;;;;;;;17.21;58.32;99502.56;2090601;28;19994;-56
2023/04/01 05:16:09;;;;;;;;;;;;;;;17.21;58.20;99510.75;2098937;28;19927;-58
2023/04/01 05:17:12;;;;;;;;;;;;;;;17.21;58.32;99508.00;2102233;28;20506;-58
2023/04/01 05:18:15;;;;;;;;;;;;;;;17.20;58.25;99510.00;2103708;28;19947;-58
2023/04/01 05:19:17;;;;;;;;;;;;;;;17.19;58.28;99508.44;2108803;28;19927;-58
2023/04/01 05:20:19;;;;;;;;;;;;;;;17.21;58.37;99510.75;2098909;28;19928;-58
2023/04/01 05:21:22;;;;;;;;;;;;;;;17.21;58.12;99510.75;2103533;28;20446;-58
2023/04/01 05:22:24;;;;;;;;;;;;;;;17.20;58.21;99511.94;2110073;28;20010;-58
2023/04/01 05:23:27;;;;;;;;;;;;;;;17.21;58.28;99516.19;2096180;28;20441;-58
2023/04/01 05:24:29;;;;;;;;;;;;;;;17.21;58.49;99516.19;2089712;28;19933;-58
2023/04/01 05:25:32;;;;;;;;;;;;;;;17.19;58.24;99513.88;2090817;28;20308;-55
2023/04/01 05:26:34;;;;;;;;;;;;;;;17.20;58.33;99518.16;2093379;28;20590;-56
2023/04/01 05:27:37;;;;;;;;;;;;;;;17.20;58.15;99514.66;2099652;28;19928;-56
2023/04/01 05:28:40;;;;;;;;;;;;;;;17.20;58.36;99514.66;2112875;28;19931;-55
2023/04/01 05:29:43;;;;;;;;;;;;;;;17.19;58.12;99518.56;2099250;28;19924;-55
2023/04/01 05:31:23;;;;;;;;;;;;;;;17.20;58.33;99515.44;2084207;28;19931;-55
2023/04/01 05:32:26;;;;;;;;;;;;;;;17.20;58.38;99517.38;2091777;28;19929;-56
2023/04/01 05:33:28;;;;;;;;;;;;;;;17.20;58.38;99526.34;2090768;28;19937;-55
2023/04/01 05:34:30;;;;;;;;;;;;;;;17.20;58.28;99528.31;2106468;28;20502;-54